sensor_id;sensor_type;location;lat;lon;timestamp;P1;durP1;ratioP1;P2;durP2;ratioP2
16075;SDS011;8142;48.242;11.644;2024-03-02T00:00:21;13.27;;;9.83;;
16075;SDS011;8142;48.242;11.644;2024-03-02T00:02:50;14.67;;;10.43;;
16075;SDS011;8142;48.242;11.644;2024-03-02T00:05:20;16.53;;;11.37;;
16075;SDS011;8142;48.242;11.644;2024-03-02T00:10:26;14.83;;;11.43;;
16075;SDS011;8142;48.242;11.644;2024-03-02T00:12:56;15.87;;;11.80;;
16075;SDS011;8142;48.242;11.644;2024-03-02T00:18:13;16.37;;;11.47;;
16075;SDS011;8142;48.242;11.644;2024-03-02T00:20:46;16.67;;;10.70;;
16075;SDS011;8142;48.242;11.644;2024-03-02T00:23:16;15.10;;;11.33;;
16075;SDS011;8142;48.242;11.644;2024-03-02T00:25:51;15.53;;;10.90;;
16075;SDS011;8142;48.242;11.644;2024-03-02T00:28:25;16.50;;;11.20;;
16075;SDS011;8142;48.242;11.644;2024-03-02T00:30:55;15.57;;;11.70;;
16075;SDS011;8142;48.242;11.644;2024-03-02T00:33:23;15.83;;;11.63;;
16075;SDS011;8142;48.242;11.644;2024-03-02T00:35:51;17.77;;;11.87;;
16075;SDS011;8142;48.242;11.644;2024-03-02T00:38:17;18.83;;;12.67;;
16075;SDS011;8142;48.242;11.644;2024-03-02T00:40:44;16.60;;;11.73;;
16075;SDS011;8142;48.242;11.644;2024-03-02T00:46:09;15.93;;;11.77;;
16075;SDS011;8142;48.242;11.644;2024-03-02T00:48:37;14.30;;;11.30;;
16075;SDS011;8142;48.242;11.644;2024-03-02T00:51:04;15.00;;;10.93;;
16075;SDS011;8142;48.242;11.644;2024-03-02T00:53:30;14.70;;;10.97;;
16075;SDS011;8142;48.242;11.644;2024-03-02T00:55:57;13.67;;;10.57;;
16075;SDS011;8142;48.242;11.644;2024-03-02T00:58:25;13.60;;;10.27;;
16075;SDS011;8142;48.242;11.644;2024-03-02T01:00:51;13.73;;;10.33;;
16075;SDS011;8142;48.242;11.644;2024-03-02T01:03:16;13.93;;;9.83;;
16075;SDS011;8142;48.242;11.644;2024-03-02T01:05:44;15.07;;;9.57;;
16075;SDS011;8142;48.242;11.644;2024-03-02T01:08:10;11.43;;;9.13;;
16075;SDS011;8142;48.242;11.644;2024-03-02T01:10:37;11.93;;;9.00;;
16075;SDS011;8142;48.242;11.644;2024-03-02T01:13:03;11.30;;;8.60;;
16075;SDS011;8142;48.242;11.644;2024-03-02T01:15:29;10.77;;;8.57;;
16075;SDS011;8142;48.242;11.644;2024-03-02T01:17:55;12.57;;;8.57;;
16075;SDS011;8142;48.242;11.644;2024-03-02T01:20:20;11.13;;;8.67;;
16075;SDS011;8142;48.242;11.644;2024-03-02T01:22:48;13.03;;;8.50;;
16075;SDS011;8142;48.242;11.644;2024-03-02T01:25:15;11.07;;;8.93;;
16075;SDS011;8142;48.242;11.644;2024-03-02T01:27:41;13.63;;;9.03;;
16075;SDS011;8142;48.242;11.644;2024-03-02T01:30:07;12.93;;;9.23;;
16075;SDS011;8142;48.242;11.644;2024-03-02T01:32:33;13.87;;;9.30;;
16075;SDS011;8142;48.242;11.644;2024-03-02T01:34:59;14.90;;;10.00;;
16075;SDS011;8142;48.242;11.644;2024-03-02T01:37:25;14.60;;;10.50;;
16075;SDS011;8142;48.242;11.644;2024-03-02T01:39:50;12.60;;;10.00;;
16075;SDS011;8142;48.242;11.644;2024-03-02T01:42:16;11.93;;;9.37;;
16075;SDS011;8142;48.242;11.644;2024-03-02T01:44:42;12.27;;;9.37;;
16075;SDS011;8142;48.242;11.644;2024-03-02T01:47:08;11.97;;;9.40;;
16075;SDS011;8142;48.242;11.644;2024-03-02T01:49:34;11.90;;;8.90;;
16075;SDS011;8142;48.242;11.644;2024-03-02T01:52:00;10.07;;;8.33;;
16075;SDS011;8142;48.242;11.644;2024-03-02T01:54:26;13.10;;;9.30;;
16075;SDS011;8142;48.242;11.644;2024-03-02T01:56:52;13.03;;;9.03;;
16075;SDS011;8142;48.242;11.644;2024-03-02T01:59:18;10.67;;;8.87;;
16075;SDS011;8142;48.242;11.644;2024-03-02T02:01:44;11.77;;;8.60;;
16075;SDS011;8142;48.242;11.644;2024-03-02T02:04:10;11.97;;;8.80;;
16075;SDS011;8142;48.242;11.644;2024-03-02T02:06:36;11.70;;;8.57;;
16075;SDS011;8142;48.242;11.644;2024-03-02T02:09:02;11.47;;;8.87;;
16075;SDS011;8142;48.242;11.644;2024-03-02T02:11:27;11.53;;;8.63;;
16075;SDS011;8142;48.242;11.644;2024-03-02T02:13:53;11.17;;;8.70;;
16075;SDS011;8142;48.242;11.644;2024-03-02T02:16:21;10.77;;;8.50;;
16075;SDS011;8142;48.242;11.644;2024-03-02T02:18:47;10.57;;;8.67;;
16075;SDS011;8142;48.242;11.644;2024-03-02T02:21:12;10.53;;;8.53;;
16075;SDS011;8142;48.242;11.644;2024-03-02T02:23:38;11.13;;;8.00;;
16075;SDS011;8142;48.242;11.644;2024-03-02T02:26:04;10.97;;;8.77;;
16075;SDS011;8142;48.242;11.644;2024-03-02T02:28:30;11.80;;;8.53;;
16075;SDS011;8142;48.242;11.644;2024-03-02T02:30:56;9.93;;;8.17;;
16075;SDS011;8142;48.242;11.644;2024-03-02T02:33:22;12.70;;;9.13;;
16075;SDS011;8142;48.242;11.644;2024-03-02T02:35:48;12.40;;;8.97;;
16075;SDS011;8142;48.242;11.644;2024-03-02T02:38:14;10.00;;;8.57;;
16075;SDS011;8142;48.242;11.644;2024-03-02T02:40:40;11.37;;;9.13;;
16075;SDS011;8142;48.242;11.644;2024-03-02T02:43:05;11.30;;;8.90;;
16075;SDS011;8142;48.242;11.644;2024-03-02T02:45:32;10.83;;;8.50;;
16075;SDS011;8142;48.242;11.644;2024-03-02T02:47:58;10.33;;;8.17;;
16075;SDS011;8142;48.242;11.644;2024-03-02T02:50:24;11.40;;;8.97;;
16075;SDS011;8142;48.242;11.644;2024-03-02T02:52:50;13.87;;;9.27;;
16075;SDS011;8142;48.242;11.644;2024-03-02T02:55:16;11.07;;;8.60;;
16075;SDS011;8142;48.242;11.644;2024-03-02T02:57:42;12.70;;;8.90;;
16075;SDS011;8142;48.242;11.644;2024-03-02T03:00:10;11.17;;;8.87;;
16075;SDS011;8142;48.242;11.644;2024-03-02T03:02:40;10.83;;;8.57;;
16075;SDS011;8142;48.242;11.644;2024-03-02T03:05:07;11.43;;;7.80;;
16075;SDS011;8142;48.242;11.644;2024-03-02T03:07:35;10.03;;;8.50;;
16075;SDS011;8142;48.242;11.644;2024-03-02T03:10:02;9.97;;;7.87;;
16075;SDS011;8142;48.242;11.644;2024-03-02T03:12:33;11.57;;;8.63;;
16075;SDS011;8142;48.242;11.644;2024-03-02T03:15:02;11.40;;;8.70;;
16075;SDS011;8142;48.242;11.644;2024-03-02T03:17:30;10.73;;;8.37;;
16075;SDS011;8142;48.242;11.644;2024-03-02T03:19:56;9.83;;;8.00;;
16075;SDS011;8142;48.242;11.644;2024-03-02T03:22:22;11.83;;;7.57;;
16075;SDS011;8142;48.242;11.644;2024-03-02T03:24:48;11.20;;;8.73;;
16075;SDS011;8142;48.242;11.644;2024-03-02T03:27:14;13.73;;;8.77;;
16075;SDS011;8142;48.242;11.644;2024-03-02T03:29:40;10.33;;;8.13;;
16075;SDS011;8142;48.242;11.644;2024-03-02T03:32:06;12.30;;;8.83;;
16075;SDS011;8142;48.242;11.644;2024-03-02T03:34:32;11.27;;;8.97;;
16075;SDS011;8142;48.242;11.644;2024-03-02T03:36:58;11.73;;;8.13;;
16075;SDS011;8142;48.242;11.644;2024-03-02T03:39:24;10.60;;;8.17;;
16075;SDS011;8142;48.242;11.644;2024-03-02T03:41:51;11.00;;;7.97;;
16075;SDS011;8142;48.242;11.644;2024-03-02T03:44:17;9.40;;;7.43;;
16075;SDS011;8142;48.242;11.644;2024-03-02T03:46:43;10.27;;;8.50;;
16075;SDS011;8142;48.242;11.644;2024-03-02T03:49:09;10.67;;;7.90;;
16075;SDS011;8142;48.242;11.644;2024-03-02T03:51:35;10.57;;;8.40;;
16075;SDS011;8142;48.242;11.644;2024-03-02T03:54:01;12.73;;;8.90;;
16075;SDS011;8142;48.242;11.644;2024-03-02T03:56:27;10.87;;;8.80;;
16075;SDS011;8142;48.242;11.644;2024-03-02T03:58:53;12.07;;;9.13;;
16075;SDS011;8142;48.242;11.644;2024-03-02T04:01:19;12.87;;;9.33;;
16075;SDS011;8142;48.242;11.644;2024-03-02T04:03:45;11.13;;;8.67;;
16075;SDS011;8142;48.242;11.644;2024-03-02T04:06:11;12.60;;;9.33;;
16075;SDS011;8142;48.242;11.644;2024-03-02T04:08:37;12.83;;;9.50;;
16075;SDS011;8142;48.242;11.644;2024-03-02T04:11:02;12.13;;;9.13;;
16075;SDS011;8142;48.242;11.644;2024-03-02T04:13:29;11.83;;;8.90;;
16075;SDS011;8142;48.242;11.644;2024-03-02T04:15:55;12.20;;;9.20;;
16075;SDS011;8142;48.242;11.644;2024-03-02T04:18:21;13.07;;;9.33;;
16075;SDS011;8142;48.242;11.644;2024-03-02T04:20:47;11.07;;;8.73;;
16075;SDS011;8142;48.242;11.644;2024-03-02T04:23:13;11.83;;;9.00;;
16075;SDS011;8142;48.242;11.644;2024-03-02T04:25:39;11.97;;;9.33;;
16075;SDS011;8142;48.242;11.644;2024-03-02T04:28:05;12.93;;;8.87;;
16075;SDS011;8142;48.242;11.644;2024-03-02T04:30:31;12.20;;;9.50;;
16075;SDS011;8142;48.242;11.644;2024-03-02T04:32:56;13.27;;;9.87;;
16075;SDS011;8142;48.242;11.644;2024-03-02T04:35:22;13.63;;;10.27;;
16075;SDS011;8142;48.242;11.644;2024-03-02T04:37:49;13.67;;;9.83;;
16075;SDS011;8142;48.242;11.644;2024-03-02T04:40:15;13.70;;;9.33;;
16075;SDS011;8142;48.242;11.644;2024-03-02T04:42:40;12.40;;;9.37;;
16075;SDS011;8142;48.242;11.644;2024-03-02T04:45:07;14.20;;;9.47;;
16075;SDS011;8142;48.242;11.644;2024-03-02T04:47:33;11.90;;;9.13;;
16075;SDS011;8142;48.242;11.644;2024-03-02T04:49:59;12.57;;;9.20;;
16075;SDS011;8142;48.242;11.644;2024-03-02T04:52:25;13.60;;;8.80;;
16075;SDS011;8142;48.242;11.644;2024-03-02T04:54:51;13.53;;;9.37;;
16075;SDS011;8142;48.242;11.644;2024-03-02T04:57:35;15.27;;;9.97;;
16075;SDS011;8142;48.242;11.644;2024-03-02T05:00:01;16.50;;;9.47;;
16075;SDS011;8142;48.242;11.644;2024-03-02T05:02:32;13.20;;;9.60;;
16075;SDS011;8142;48.242;11.644;2024-03-02T05:04:58;12.73;;;10.00;;
16075;SDS011;8142;48.242;11.644;2024-03-02T05:07:24;13.27;;;9.83;;
16075;SDS011;8142;48.242;11.644;2024-03-02T05:09:50;13.00;;;9.83;;
16075;SDS011;8142;48.242;11.644;2024-03-02T05:12:15;14.80;;;9.60;;
16075;SDS011;8142;48.242;11.644;2024-03-02T05:15:00;12.23;;;9.10;;
16075;SDS011;8142;48.242;11.644;2024-03-02T05:17:27;13.07;;;9.20;;
16075;SDS011;8142;48.242;11.644;2024-03-02T05:19:53;13.60;;;9.47;;
16075;SDS011;8142;48.242;11.644;2024-03-02T05:22:20;11.87;;;9.23;;
16075;SDS011;8142;48.242;11.644;2024-03-02T05:24:46;13.80;;;10.07;;
16075;SDS011;8142;48.242;11.644;2024-03-02T05:27:11;14.07;;;10.17;;
16075;SDS011;8142;48.242;11.644;2024-03-02T05:29:37;13.23;;;9.57;;
16075;SDS011;8142;48.242;11.644;2024-03-02T05:32:03;14.40;;;9.87;;
16075;SDS011;8142;48.242;11.644;2024-03-02T05:34:29;14.20;;;10.20;;
16075;SDS011;8142;48.242;11.644;2024-03-02T05:36:56;12.90;;;9.73;;
16075;SDS011;8142;48.242;11.644;2024-03-02T05:39:23;12.70;;;9.63;;
16075;SDS011;8142;48.242;11.644;2024-03-02T05:41:49;12.73;;;10.10;;
16075;SDS011;8142;48.242;11.644;2024-03-02T05:44:14;13.70;;;9.97;;
16075;SDS011;8142;48.242;11.644;2024-03-02T05:46:41;13.03;;;9.93;;
16075;SDS011;8142;48.242;11.644;2024-03-02T05:49:07;12.70;;;9.87;;
16075;SDS011;8142;48.242;11.644;2024-03-02T05:51:33;12.07;;;9.50;;
16075;SDS011;8142;48.242;11.644;2024-03-02T05:53:59;13.53;;;9.63;;
16075;SDS011;8142;48.242;11.644;2024-03-02T05:56:25;13.23;;;10.13;;
16075;SDS011;8142;48.242;11.644;2024-03-02T05:58:51;13.13;;;9.87;;
16075;SDS011;8142;48.242;11.644;2024-03-02T06:01:46;13.10;;;10.50;;
16075;SDS011;8142;48.242;11.644;2024-03-02T06:04:13;15.33;;;10.17;;
16075;SDS011;8142;48.242;11.644;2024-03-02T06:06:40;12.40;;;9.00;;
16075;SDS011;8142;48.242;11.644;2024-03-02T06:09:06;10.93;;;8.90;;
16075;SDS011;8142;48.242;11.644;2024-03-02T06:11:38;10.73;;;9.00;;
16075;SDS011;8142;48.242;11.644;2024-03-02T06:14:05;13.00;;;9.27;;
16075;SDS011;8142;48.242;11.644;2024-03-02T06:16:32;11.83;;;9.17;;
16075;SDS011;8142;48.242;11.644;2024-03-02T06:18:59;13.00;;;10.13;;
16075;SDS011;8142;48.242;11.644;2024-03-02T06:21:25;13.37;;;9.77;;
16075;SDS011;8142;48.242;11.644;2024-03-02T06:23:52;13.97;;;10.50;;
16075;SDS011;8142;48.242;11.644;2024-03-02T06:26:18;15.30;;;10.30;;
16075;SDS011;8142;48.242;11.644;2024-03-02T06:28:44;14.07;;;10.40;;
16075;SDS011;8142;48.242;11.644;2024-03-02T06:31:11;15.60;;;10.90;;
16075;SDS011;8142;48.242;11.644;2024-03-02T06:33:37;16.17;;;10.73;;
16075;SDS011;8142;48.242;11.644;2024-03-02T06:36:03;14.47;;;10.67;;
16075;SDS011;8142;48.242;11.644;2024-03-02T06:38:29;16.73;;;10.87;;
16075;SDS011;8142;48.242;11.644;2024-03-02T06:40:57;12.47;;;9.97;;
16075;SDS011;8142;48.242;11.644;2024-03-02T06:43:23;13.97;;;9.93;;
16075;SDS011;8142;48.242;11.644;2024-03-02T06:45:50;16.63;;;11.33;;
16075;SDS011;8142;48.242;11.644;2024-03-02T06:48:19;14.13;;;9.77;;
16075;SDS011;8142;48.242;11.644;2024-03-02T06:50:46;13.93;;;9.67;;
16075;SDS011;8142;48.242;11.644;2024-03-02T06:53:13;13.03;;;9.30;;
16075;SDS011;8142;48.242;11.644;2024-03-02T06:55:39;12.47;;;9.37;;
16075;SDS011;8142;48.242;11.644;2024-03-02T06:58:05;13.27;;;9.33;;
16075;SDS011;8142;48.242;11.644;2024-03-02T07:00:31;15.60;;;10.53;;
16075;SDS011;8142;48.242;11.644;2024-03-02T07:02:57;15.07;;;10.77;;
16075;SDS011;8142;48.242;11.644;2024-03-02T07:05:23;14.50;;;10.30;;
16075;SDS011;8142;48.242;11.644;2024-03-02T07:07:49;18.10;;;12.20;;
16075;SDS011;8142;48.242;11.644;2024-03-02T07:10:15;18.97;;;12.30;;
16075;SDS011;8142;48.242;11.644;2024-03-02T07:12:41;18.03;;;12.40;;
16075;SDS011;8142;48.242;11.644;2024-03-02T07:15:07;17.23;;;11.93;;
16075;SDS011;8142;48.242;11.644;2024-03-02T07:17:44;18.77;;;12.47;;
16075;SDS011;8142;48.242;11.644;2024-03-02T07:20:11;17.63;;;12.03;;
16075;SDS011;8142;48.242;11.644;2024-03-02T07:22:43;19.60;;;13.10;;
16075;SDS011;8142;48.242;11.644;2024-03-02T07:25:10;18.83;;;12.63;;
16075;SDS011;8142;48.242;11.644;2024-03-02T07:27:35;17.80;;;12.30;;
16075;SDS011;8142;48.242;11.644;2024-03-02T07:30:02;18.57;;;12.63;;
16075;SDS011;8142;48.242;11.644;2024-03-02T07:32:29;18.20;;;12.90;;
16075;SDS011;8142;48.242;11.644;2024-03-02T07:34:55;19.27;;;13.73;;
16075;SDS011;8142;48.242;11.644;2024-03-02T07:37:21;19.27;;;13.00;;
16075;SDS011;8142;48.242;11.644;2024-03-02T07:39:48;18.13;;;12.67;;
16075;SDS011;8142;48.242;11.644;2024-03-02T07:42:16;18.60;;;12.60;;
16075;SDS011;8142;48.242;11.644;2024-03-02T07:44:44;18.17;;;12.80;;
16075;SDS011;8142;48.242;11.644;2024-03-02T07:47:11;20.67;;;13.50;;
16075;SDS011;8142;48.242;11.644;2024-03-02T07:49:37;19.80;;;14.37;;
16075;SDS011;8142;48.242;11.644;2024-03-02T07:52:03;21.23;;;14.03;;
16075;SDS011;8142;48.242;11.644;2024-03-02T07:54:29;22.27;;;14.50;;
16075;SDS011;8142;48.242;11.644;2024-03-02T07:56:55;28.60;;;16.13;;
16075;SDS011;8142;48.242;11.644;2024-03-02T07:59:21;24.73;;;15.07;;
16075;SDS011;8142;48.242;11.644;2024-03-02T08:01:48;21.50;;;13.97;;
16075;SDS011;8142;48.242;11.644;2024-03-02T08:04:16;23.03;;;14.70;;
16075;SDS011;8142;48.242;11.644;2024-03-02T08:06:44;19.73;;;14.13;;
16075;SDS011;8142;48.242;11.644;2024-03-02T08:09:12;20.60;;;13.80;;
16075;SDS011;8142;48.242;11.644;2024-03-02T08:11:38;20.33;;;14.40;;
16075;SDS011;8142;48.242;11.644;2024-03-02T08:14:04;18.87;;;13.40;;
16075;SDS011;8142;48.242;11.644;2024-03-02T08:16:30;21.17;;;13.93;;
16075;SDS011;8142;48.242;11.644;2024-03-02T08:18:56;21.07;;;13.97;;
16075;SDS011;8142;48.242;11.644;2024-03-02T08:21:23;18.20;;;13.37;;
16075;SDS011;8142;48.242;11.644;2024-03-02T08:23:50;20.00;;;13.80;;
16075;SDS011;8142;48.242;11.644;2024-03-02T08:26:16;18.33;;;13.37;;
16075;SDS011;8142;48.242;11.644;2024-03-02T08:28:43;19.90;;;13.70;;
16075;SDS011;8142;48.242;11.644;2024-03-02T08:31:11;19.80;;;13.30;;
16075;SDS011;8142;48.242;11.644;2024-03-02T08:33:38;20.00;;;14.37;;
16075;SDS011;8142;48.242;11.644;2024-03-02T08:36:05;20.87;;;14.17;;
16075;SDS011;8142;48.242;11.644;2024-03-02T08:38:31;22.07;;;14.33;;
16075;SDS011;8142;48.242;11.644;2024-03-02T08:40:58;22.70;;;15.00;;
16075;SDS011;8142;48.242;11.644;2024-03-02T08:43:24;20.73;;;14.37;;
16075;SDS011;8142;48.242;11.644;2024-03-02T08:45:50;22.43;;;15.07;;
16075;SDS011;8142;48.242;11.644;2024-03-02T08:48:16;24.40;;;15.57;;
16075;SDS011;8142;48.242;11.644;2024-03-02T08:50:42;19.93;;;13.73;;
16075;SDS011;8142;48.242;11.644;2024-03-02T08:53:10;23.77;;;16.27;;
16075;SDS011;8142;48.242;11.644;2024-03-02T08:55:38;26.03;;;16.20;;
16075;SDS011;8142;48.242;11.644;2024-03-02T08:58:06;22.83;;;15.87;;
16075;SDS011;8142;48.242;11.644;2024-03-02T09:00:32;23.27;;;16.17;;
16075;SDS011;8142;48.242;11.644;2024-03-02T09:02:58;24.73;;;16.50;;
16075;SDS011;8142;48.242;11.644;2024-03-02T09:05:24;25.73;;;17.53;;
16075;SDS011;8142;48.242;11.644;2024-03-02T09:07:50;24.13;;;16.03;;
16075;SDS011;8142;48.242;11.644;2024-03-02T09:10:16;26.57;;;17.10;;
16075;SDS011;8142;48.242;11.644;2024-03-02T09:12:42;26.27;;;16.67;;
16075;SDS011;8142;48.242;11.644;2024-03-02T09:15:08;27.17;;;17.53;;
16075;SDS011;8142;48.242;11.644;2024-03-02T09:17:38;28.47;;;18.13;;
16075;SDS011;8142;48.242;11.644;2024-03-02T09:20:07;31.10;;;18.27;;
16075;SDS011;8142;48.242;11.644;2024-03-02T09:22:35;29.53;;;17.87;;
16075;SDS011;8142;48.242;11.644;2024-03-02T09:25:01;32.93;;;18.43;;
16075;SDS011;8142;48.242;11.644;2024-03-02T09:27:28;33.67;;;19.07;;
16075;SDS011;8142;48.242;11.644;2024-03-02T09:29:54;30.90;;;18.60;;
16075;SDS011;8142;48.242;11.644;2024-03-02T09:32:20;30.00;;;18.30;;
16075;SDS011;8142;48.242;11.644;2024-03-02T09:34:46;31.27;;;18.30;;
16075;SDS011;8142;48.242;11.644;2024-03-02T09:37:13;33.77;;;19.70;;
16075;SDS011;8142;48.242;11.644;2024-03-02T09:39:40;31.57;;;18.47;;
16075;SDS011;8142;48.242;11.644;2024-03-02T09:42:10;34.57;;;19.50;;
16075;SDS011;8142;48.242;11.644;2024-03-02T09:44:40;33.90;;;18.90;;
16075;SDS011;8142;48.242;11.644;2024-03-02T09:47:08;30.90;;;17.93;;
16075;SDS011;8142;48.242;11.644;2024-03-02T09:49:34;29.37;;;17.63;;
16075;SDS011;8142;48.242;11.644;2024-03-02T09:52:00;33.97;;;19.13;;
16075;SDS011;8142;48.242;11.644;2024-03-02T09:54:28;30.17;;;17.70;;
16075;SDS011;8142;48.242;11.644;2024-03-02T09:56:54;30.10;;;17.47;;
16075;SDS011;8142;48.242;11.644;2024-03-02T09:59:20;29.90;;;17.50;;
16075;SDS011;8142;48.242;11.644;2024-03-02T10:01:59;29.77;;;17.47;;
16075;SDS011;8142;48.242;11.644;2024-03-02T10:04:26;31.10;;;18.13;;
16075;SDS011;8142;48.242;11.644;2024-03-02T10:09:41;31.63;;;17.80;;
16075;SDS011;8142;48.242;11.644;2024-03-02T10:12:09;27.83;;;16.80;;
16075;SDS011;8142;48.242;11.644;2024-03-02T10:14:37;30.87;;;17.83;;
16075;SDS011;8142;48.242;11.644;2024-03-02T10:17:03;26.93;;;16.50;;
16075;SDS011;8142;48.242;11.644;2024-03-02T10:19:32;27.93;;;16.23;;
16075;SDS011;8142;48.242;11.644;2024-03-02T10:21:58;29.67;;;17.03;;
16075;SDS011;8142;48.242;11.644;2024-03-02T10:24:25;26.57;;;16.73;;
16075;SDS011;8142;48.242;11.644;2024-03-02T10:26:51;30.20;;;17.67;;
16075;SDS011;8142;48.242;11.644;2024-03-02T10:29:19;27.10;;;17.03;;
16075;SDS011;8142;48.242;11.644;2024-03-02T10:31:46;27.03;;;17.40;;
16075;SDS011;8142;48.242;11.644;2024-03-02T10:34:13;27.10;;;16.50;;
16075;SDS011;8142;48.242;11.644;2024-03-02T10:36:41;27.63;;;16.97;;
16075;SDS011;8142;48.242;11.644;2024-03-02T10:39:08;27.73;;;18.43;;
16075;SDS011;8142;48.242;11.644;2024-03-02T10:41:35;27.43;;;15.93;;
16075;SDS011;8142;48.242;11.644;2024-03-02T10:44:03;26.27;;;17.50;;
16075;SDS011;8142;48.242;11.644;2024-03-02T10:46:30;25.93;;;16.67;;
16075;SDS011;8142;48.242;11.644;2024-03-02T10:48:58;28.17;;;16.90;;
16075;SDS011;8142;48.242;11.644;2024-03-02T10:51:26;26.33;;;16.17;;
16075;SDS011;8142;48.242;11.644;2024-03-02T10:53:55;24.43;;;16.00;;
16075;SDS011;8142;48.242;11.644;2024-03-02T10:56:21;24.03;;;15.60;;
16075;SDS011;8142;48.242;11.644;2024-03-02T10:59:16;24.67;;;15.97;;
16075;SDS011;8142;48.242;11.644;2024-03-02T11:01:53;24.60;;;15.97;;
16075;SDS011;8142;48.242;11.644;2024-03-02T11:04:23;25.03;;;16.23;;
16075;SDS011;8142;48.242;11.644;2024-03-02T11:06:51;28.17;;;16.90;;
16075;SDS011;8142;48.242;11.644;2024-03-02T11:09:21;29.00;;;17.67;;
16075;SDS011;8142;48.242;11.644;2024-03-02T11:11:52;26.93;;;17.03;;
16075;SDS011;8142;48.242;11.644;2024-03-02T11:14:29;31.17;;;18.30;;
16075;SDS011;8142;48.242;11.644;2024-03-02T11:17:00;29.47;;;18.07;;
16075;SDS011;8142;48.242;11.644;2024-03-02T11:19:29;28.93;;;17.20;;
16075;SDS011;8142;48.242;11.644;2024-03-02T11:21:56;26.10;;;17.40;;
16075;SDS011;8142;48.242;11.644;2024-03-02T11:26:53;30.23;;;18.67;;
16075;SDS011;8142;48.242;11.644;2024-03-02T11:32:01;32.67;;;19.30;;
16075;SDS011;8142;48.242;11.644;2024-03-02T11:34:29;37.43;;;21.77;;
16075;SDS011;8142;48.242;11.644;2024-03-02T11:36:56;33.97;;;20.13;;
16075;SDS011;8142;48.242;11.644;2024-03-02T11:39:22;35.37;;;20.03;;
16075;SDS011;8142;48.242;11.644;2024-03-02T11:41:49;35.30;;;21.27;;
16075;SDS011;8142;48.242;11.644;2024-03-02T11:44:15;31.47;;;19.63;;
16075;SDS011;8142;48.242;11.644;2024-03-02T11:46:41;34.87;;;20.77;;
16075;SDS011;8142;48.242;11.644;2024-03-02T11:49:10;31.47;;;19.93;;
16075;SDS011;8142;48.242;11.644;2024-03-02T11:51:40;29.67;;;17.60;;
16075;SDS011;8142;48.242;11.644;2024-03-02T11:54:25;26.83;;;17.27;;
16075;SDS011;8142;48.242;11.644;2024-03-02T11:56:55;29.87;;;18.93;;
16075;SDS011;8142;48.242;11.644;2024-03-02T11:59:21;32.73;;;20.13;;
16075;SDS011;8142;48.242;11.644;2024-03-02T12:01:48;31.60;;;19.57;;
16075;SDS011;8142;48.242;11.644;2024-03-02T12:04:15;29.97;;;19.43;;
16075;SDS011;8142;48.242;11.644;2024-03-02T12:06:41;30.10;;;18.87;;
16075;SDS011;8142;48.242;11.644;2024-03-02T12:09:09;28.00;;;17.63;;
16075;SDS011;8142;48.242;11.644;2024-03-02T12:11:40;26.97;;;17.27;;
16075;SDS011;8142;48.242;11.644;2024-03-02T12:14:10;25.03;;;15.83;;
16075;SDS011;8142;48.242;11.644;2024-03-02T12:16:38;25.57;;;16.63;;
16075;SDS011;8142;48.242;11.644;2024-03-02T12:19:05;23.90;;;15.23;;
16075;SDS011;8142;48.242;11.644;2024-03-02T12:21:31;23.67;;;13.73;;
16075;SDS011;8142;48.242;11.644;2024-03-02T12:23:57;23.13;;;14.50;;
16075;SDS011;8142;48.242;11.644;2024-03-02T12:26:23;25.10;;;15.47;;
16075;SDS011;8142;48.242;11.644;2024-03-02T12:28:50;25.07;;;14.67;;
16075;SDS011;8142;48.242;11.644;2024-03-02T12:31:17;25.20;;;15.60;;
16075;SDS011;8142;48.242;11.644;2024-03-02T12:33:43;23.97;;;14.83;;
16075;SDS011;8142;48.242;11.644;2024-03-02T12:36:09;23.23;;;14.43;;
16075;SDS011;8142;48.242;11.644;2024-03-02T12:38:37;22.03;;;13.93;;
16075;SDS011;8142;48.242;11.644;2024-03-02T12:41:08;22.53;;;14.30;;
16075;SDS011;8142;48.242;11.644;2024-03-02T12:43:34;25.17;;;15.83;;
16075;SDS011;8142;48.242;11.644;2024-03-02T12:45:59;24.07;;;15.60;;
16075;SDS011;8142;48.242;11.644;2024-03-02T12:48:25;28.57;;;16.73;;
16075;SDS011;8142;48.242;11.644;2024-03-02T12:50:52;26.50;;;17.37;;
16075;SDS011;8142;48.242;11.644;2024-03-02T12:53:18;25.47;;;16.90;;
16075;SDS011;8142;48.242;11.644;2024-03-02T12:55:44;23.83;;;15.80;;
16075;SDS011;8142;48.242;11.644;2024-03-02T12:58:20;22.97;;;15.47;;
16075;SDS011;8142;48.242;11.644;2024-03-02T13:00:47;22.97;;;15.27;;
16075;SDS011;8142;48.242;11.644;2024-03-02T13:03:13;25.10;;;16.77;;
16075;SDS011;8142;48.242;11.644;2024-03-02T13:05:39;23.33;;;15.23;;
16075;SDS011;8142;48.242;11.644;2024-03-02T13:08:09;24.83;;;15.53;;
16075;SDS011;8142;48.242;11.644;2024-03-02T13:10:34;25.13;;;16.17;;
16075;SDS011;8142;48.242;11.644;2024-03-02T13:13:00;25.07;;;16.03;;
16075;SDS011;8142;48.242;11.644;2024-03-02T13:15:26;22.23;;;14.50;;
16075;SDS011;8142;48.242;11.644;2024-03-02T13:17:52;25.07;;;16.13;;
16075;SDS011;8142;48.242;11.644;2024-03-02T13:20:18;24.63;;;15.67;;
16075;SDS011;8142;48.242;11.644;2024-03-02T13:22:45;24.50;;;15.50;;
16075;SDS011;8142;48.242;11.644;2024-03-02T13:25:12;24.03;;;15.57;;
16075;SDS011;8142;48.242;11.644;2024-03-02T13:27:37;26.47;;;16.43;;
16075;SDS011;8142;48.242;11.644;2024-03-02T13:30:04;24.57;;;14.73;;
16075;SDS011;8142;48.242;11.644;2024-03-02T13:32:34;21.90;;;14.00;;
16075;SDS011;8142;48.242;11.644;2024-03-02T13:35:00;23.50;;;14.63;;
16075;SDS011;8142;48.242;11.644;2024-03-02T13:37:26;24.83;;;14.10;;
16075;SDS011;8142;48.242;11.644;2024-03-02T13:39:52;23.50;;;14.50;;
16075;SDS011;8142;48.242;11.644;2024-03-02T13:42:18;22.37;;;13.70;;
16075;SDS011;8142;48.242;11.644;2024-03-02T13:44:44;26.00;;;16.13;;
16075;SDS011;8142;48.242;11.644;2024-03-02T13:47:15;26.23;;;16.33;;
16075;SDS011;8142;48.242;11.644;2024-03-02T13:49:41;25.57;;;15.80;;
16075;SDS011;8142;48.242;11.644;2024-03-02T13:52:10;26.07;;;16.03;;
16075;SDS011;8142;48.242;11.644;2024-03-02T13:54:39;27.70;;;16.70;;
16075;SDS011;8142;48.242;11.644;2024-03-02T13:57:05;26.80;;;16.00;;
16075;SDS011;8142;48.242;11.644;2024-03-02T13:59:33;26.47;;;16.30;;
16075;SDS011;8142;48.242;11.644;2024-03-02T14:02:01;27.33;;;15.93;;
16075;SDS011;8142;48.242;11.644;2024-03-02T14:04:30;26.00;;;15.60;;
16075;SDS011;8142;48.242;11.644;2024-03-02T14:06:59;27.77;;;17.23;;
16075;SDS011;8142;48.242;11.644;2024-03-02T14:09:25;25.43;;;15.10;;
16075;SDS011;8142;48.242;11.644;2024-03-02T14:11:51;24.03;;;15.10;;
16075;SDS011;8142;48.242;11.644;2024-03-02T14:14:17;27.43;;;17.00;;
16075;SDS011;8142;48.242;11.644;2024-03-02T14:16:43;25.30;;;16.20;;
16075;SDS011;8142;48.242;11.644;2024-03-02T14:19:10;26.03;;;16.50;;
16075;SDS011;8142;48.242;11.644;2024-03-02T14:21:40;25.30;;;16.50;;
16075;SDS011;8142;48.242;11.644;2024-03-02T14:24:06;24.50;;;15.77;;
16075;SDS011;8142;48.242;11.644;2024-03-02T14:26:32;26.07;;;16.13;;
16075;SDS011;8142;48.242;11.644;2024-03-02T14:28:59;26.27;;;16.70;;
16075;SDS011;8142;48.242;11.644;2024-03-02T14:31:28;24.43;;;15.60;;
16075;SDS011;8142;48.242;11.644;2024-03-02T14:33:54;21.50;;;14.83;;
16075;SDS011;8142;48.242;11.644;2024-03-02T14:36:20;22.77;;;15.00;;
16075;SDS011;8142;48.242;11.644;2024-03-02T14:38:46;22.80;;;14.43;;
16075;SDS011;8142;48.242;11.644;2024-03-02T14:41:12;22.13;;;14.20;;